Time;durP1;ratioP1;P1;durP2;ratioP2;P2;SDS_P1;SDS_P2;PMS_P1;PMS_P2;Temp;Humidity;BMP_temperature;BMP_pressure;BME280_temperature;BME280_humidity;BME280_pressure;Samples;Min_cycle;Max_cycle;Signal;HPM_P1;HPM_P2
2020/12/10 00:01:11;;;;;;;24.02;13.55;;;;;;;7.74;75.24;98699.91;4202527;34;33553;-94
2020/12/10 00:03:55;;;;;;;22.33;13.52;;;;;;;8.16;73.51;98702.69;4217032;34;34677;-95
2020/12/10 00:06:28;;;;;;;18.65;12.95;;;;;;;8.03;73.92;98695.38;4217171;33;34154;-93
2020/12/10 00:09:03;;;;;;;19.15;12.52;;;;;;;8.22;73.29;98694.66;4226859;33;34336;-96
2020/12/10 00:11:36;;;;;;;16.37;11.45;;;;;;;8.18;73.51;98688.00;4213190;33;32598;-92
2020/12/10 00:14:09;;;;;;;21.37;11.75;;;;;;;8.53;72.16;98687.19;4202363;34;33296;-96
2020/12/10 00:16:54;;;;;;;16.20;10.60;;;;;;;8.54;72.08;98684.28;4195666;34;34952;-94
2020/12/10 00:19:39;;;;;;;18.50;11.30;;;;;;;8.27;72.71;98684.13;4218959;33;33241;-94
2020/12/10 00:22:11;;;;;;;19.35;12.80;;;;;;;8.40;72.20;98679.84;4193171;34;33111;-92
2020/12/10 00:24:44;;;;;;;17.23;12.50;;;;;;;8.78;71.11;98674.84;4183452;34;34304;-96
2020/12/10 00:27:18;;;;;;;16.12;9.80;;;;;;;8.35;72.19;98676.91;4193996;34;34585;-96
2020/12/10 00:30:07;;;;;;;18.42;10.20;;;;;;;8.46;72.02;98669.13;4193526;34;33501;-96
2020/12/10 00:32:40;;;;;;;16.00;9.55;;;;;;;8.48;72.02;98667.06;4206098;34;33157;-94
2020/12/10 00:35:34;;;;;;;16.27;10.68;;;;;;;8.29;72.40;98663.22;4219651;33;34641;-92
2020/12/10 00:38:06;;;;;;;15.27;10.68;;;;;;;8.39;72.43;98667.41;4241254;33;34387;-93
2020/12/10 00:40:39;;;;;;;14.82;10.35;;;;;;;8.50;71.89;98674.13;4232439;33;34842;-92
2020/12/10 00:43:11;;;;;;;16.42;11.18;;;;;;;8.76;71.07;98673.41;4220119;33;34936;-92
2020/12/10 00:45:46;;;;;;;17.70;9.20;;;;;;;8.26;72.37;98674.41;4220186;33;34064;-92
2020/12/10 00:48:18;;;;;;;13.18;9.52;;;;;;;8.46;71.97;98666.44;4232606;33;34520;-95
2020/12/10 00:51:04;;;;;;;15.80;9.80;;;;;;;8.18;72.23;98666.47;4177480;34;33320;-93
2020/12/10 00:53:48;;;;;;;14.35;9.98;;;;;;;7.48;74.85;98670.94;4204262;34;35096;-96
2020/12/10 00:56:34;;;;;;;13.93;9.38;;;;;;;7.94;73.62;98671.28;4204019;34;33865;-93
2020/12/10 00:59:06;;;;;;;14.02;10.18;;;;;;;8.22;72.82;98667.75;4218988;34;33479;-96
2020/12/10 01:01:54;;;;;;;15.63;10.02;;;;;;;8.05;73.31;98661.81;4221125;33;33698;-95
2020/12/10 01:04:48;;;;;;;15.95;10.70;;;;;;;8.27;72.70;98664.44;4188578;33;33275;-94
2020/12/10 01:07:27;;;;;;;15.57;9.93;;;;;;;7.88;73.89;98661.31;4221616;33;35396;-94
2020/12/10 01:09:59;;;;;;;18.30;10.27;;;;;;;7.64;74.67;98659.87;4220453;33;35340;-96
2020/12/10 01:12:45;;;;;;;16.40;10.10;;;;;;;8.09;73.18;98652.34;4208661;33;32938;-96
2020/12/10 01:15:17;;;;;;;16.40;11.30;;;;;;;8.03;73.37;98649.63;4210019;33;35144;-96
2020/12/10 01:18:07;;;;;;;14.63;9.43;;;;;;;8.05;73.66;98645.69;4227703;33;33639;-96
2020/12/10 01:20:39;;;;;;;13.45;8.82;;;;;;;7.82;74.25;98645.13;4207023;34;34144;-95
2020/12/10 01:23:24;;;;;;;14.70;10.65;;;;;;;7.95;73.48;98637.97;4213557;34;33067;-93
2020/12/10 01:25:56;;;;;;;13.02;9.40;;;;;;;7.85;73.91;98633.97;4202857;34;34010;-96
2020/12/10 01:28:41;;;;;;;12.57;8.68;;;;;;;7.66;74.73;98633.62;4239544;33;32129;-94
2020/12/10 01:31:13;;;;;;;13.60;9.77;;;;;;;7.60;74.84;98626.34;4216945;34;35416;-96
2020/12/10 01:34:05;;;;;;;15.02;10.52;;;;;;;7.91;73.58;98625.94;4211026;34;35037;-93
2020/12/10 01:36:37;;;;;;;13.38;9.50;;;;;;;8.09;72.95;98616.53;4193645;34;34532;-95
2020/12/10 01:39:30;;;;;;;17.70;10.57;;;;;;;8.12;72.92;98611.56;4166803;34;33529;-93
2020/12/10 01:42:02;;;;;;;20.27;9.82;;;;;;;8.19;72.63;98608.94;4189159;34;34227;-96
2020/12/10 01:44:59;;;;;;;14.18;9.43;;;;;;;7.83;73.40;98606.44;4191003;34;35023;-92
2020/12/10 01:47:38;;;;;;;15.32;10.43;;;;;;;8.20;72.39;98599.78;4181321;34;33675;-94
2020/12/10 01:50:13;;;;;;;15.45;9.75;;;;;;;7.85;73.38;98590.94;4180457;34;34200;-94
2020/12/10 01:52:46;;;;;;;13.88;9.13;;;;;;;8.18;72.63;98596.50;4180650;34;34846;-96
2020/12/10 01:55:38;;;;;;;13.90;9.77;;;;;;;7.94;73.23;98590.56;4198261;34;34179;-96
2020/12/10 01:58:11;;;;;;;17.00;10.63;;;;;;;7.93;73.42;98585.38;4182726;34;34175;-93
2020/12/10 02:00:44;;;;;;;13.80;10.10;;;;;;;8.12;72.49;98587.34;4194688;34;33460;-93
2020/12/10 02:03:17;;;;;;;15.38;9.80;;;;;;;8.10;72.82;98589.41;4180975;34;34691;-93
2020/12/10 02:05:50;;;;;;;16.65;10.07;;;;;;;7.91;73.35;98588.28;4181487;34;34839;-96
2020/12/10 02:08:44;;;;;;;15.23;10.52;;;;;;;8.04;72.86;98579.44;4184945;34;35375;-94
2020/12/10 02:11:24;;;;;;;15.95;10.15;;;;;;;7.91;73.44;98580.19;4194305;34;34111;-93
2020/12/10 02:13:57;;;;;;;15.77;9.85;;;;;;;7.91;73.67;98582.06;4193135;34;33705;-94
2020/12/10 02:16:29;;;;;;;16.25;9.77;;;;;;;7.67;73.93;98576.13;4182819;34;33752;-93
2020/12/10 02:19:08;;;;;;;19.70;10.47;;;;;;;7.96;73.25;98571.53;4183943;34;34502;-96
2020/12/10 02:21:42;;;;;;;17.45;10.15;;;;;;;7.94;73.08;98560.97;4171450;34;33944;-96
2020/12/10 02:24:30;;;;;;;16.30;10.48;;;;;;;7.74;73.85;98558.19;4184503;34;32754;-94
2020/12/10 02:27:03;;;;;;;17.23;10.13;;;;;;;7.95;72.96;98554.56;4192718;34;33675;-95
2020/12/10 02:29:50;;;;;;;15.35;10.38;;;;;;;7.83;73.64;98555.31;4195835;34;34168;-95
2020/12/10 02:32:22;;;;;;;18.95;10.05;;;;;;;8.04;72.74;98549.00;4193788;34;34877;-96
2020/12/10 02:35:17;;;;;;;16.65;10.80;;;;;;;7.97;73.05;98537.41;4213886;34;34431;-96
2020/12/10 02:37:49;;;;;;;17.27;10.90;;;;;;;8.06;72.53;98538.88;4196973;34;33395;-96
2020/12/10 02:40:40;;;;;;;14.68;9.65;;;;;;;8.09;72.08;98533.09;4206727;34;35295;-94
2020/12/10 02:43:14;;;;;;;12.32;8.32;;;;;;;7.83;73.13;98534.62;4215941;34;33826;-96
2020/12/10 02:46:01;;;;;;;17.45;9.90;;;;;;;7.79;73.00;98528.00;4187445;34;34627;-96
2020/12/10 02:48:34;;;;;;;13.35;9.20;;;;;;;7.50;74.04;98529.91;4179565;34;32947;-94
2020/12/10 02:51:21;;;;;;;18.75;10.43;;;;;;;7.76;73.25;98523.00;4200657;34;34538;-95
2020/12/10 02:53:53;;;;;;;15.70;10.77;;;;;;;7.62;73.62;98522.13;4214556;34;34349;-93
2020/12/10 02:56:29;;;;;;;15.30;9.93;;;;;;;7.53;73.58;98513.38;4164861;34;35314;-95
2020/12/10 02:59:04;;;;;;;14.85;10.60;;;;;;;7.70;73.45;98507.69;4202815;34;34054;-94
2020/12/10 03:01:52;;;;;;;13.55;9.57;;;;;;;7.91;72.76;98507.56;4192842;34;34779;-94
2020/12/10 03:04:24;;;;;;;12.95;9.25;;;;;;;7.92;72.78;98503.03;4201939;34;34442;-94
2020/12/10 03:07:48;;;;;;;14.87;9.55;;;;;;;8.15;72.10;98494.63;4118968;34;35300;-94
2020/12/10 03:10:20;;;;;;;16.12;10.45;;;;;;;8.23;71.70;98497.13;4184816;34;34703;-95
2020/12/10 03:13:06;;;;;;;15.35;9.95;;;;;;;8.00;72.39;98496.62;4198371;34;36124;-93
2020/12/10 03:15:38;;;;;;;13.95;9.48;;;;;;;7.76;73.34;98496.94;4204223;34;34161;-94
2020/12/10 03:18:17;;;;;;;12.07;9.43;;;;;;;7.53;73.98;98502.62;4204026;34;32930;-94
2020/12/10 03:20:49;;;;;;;15.70;10.18;;;;;;;8.15;72.04;98496.47;4192440;34;34288;-93
2020/12/10 03:23:37;;;;;;;16.20;10.48;;;;;;;7.93;72.95;98491.22;4216380;34;34156;-93
2020/12/10 03:26:11;;;;;;;19.17;10.10;;;;;;;7.86;72.81;98483.13;4208130;34;34983;-95
2020/12/10 03:28:56;;;;;;;14.75;9.82;;;;;;;7.82;73.59;98486.44;4201333;34;35041;-94
2020/12/10 03:31:28;;;;;;;15.82;9.77;;;;;;;8.26;71.76;98491.34;4191098;34;34818;-94
2020/12/10 03:34:14;;;;;;;14.20;9.25;;;;;;;7.59;74.54;98491.06;4206547;34;32989;-95
2020/12/10 03:36:55;;;;;;;14.15;9.93;;;;;;;7.15;75.75;98492.22;4214999;34;35314;-93
2020/12/10 03:39:45;;;;;;;13.43;9.95;;;;;;;7.33;75.24;98490.91;4191595;34;34643;-96
2020/12/10 03:42:18;;;;;;;14.70;10.30;;;;;;;7.53;74.39;98502.62;4192701;34;32864;-96
2020/12/10 03:45:15;;;;;;;14.30;9.00;;;;;;;7.64;73.91;98497.72;4215613;34;34118;-93
2020/12/10 03:47:48;;;;;;;15.65;10.15;;;;;;;7.74;73.88;98498.19;4207115;34;34143;-93
2020/12/10 03:50:21;;;;;;;17.08;11.35;;;;;;;7.71;74.01;98498.56;4217403;33;32914;-95
2020/12/10 03:52:53;;;;;;;21.37;15.32;;;;;;;7.68;74.44;98521.31;4206637;34;34776;-93
2020/12/10 03:55:27;;;;;;;104.97;53.25;;;;;;;7.50;74.68;98504.84;4207100;34;32989;-93
2020/12/10 03:57:59;;;;;;;90.50;53.75;;;;;;;7.80;73.87;98504.59;4204400;34;35318;-93
2020/12/10 04:00:33;;;;;;;62.17;38.63;;;;;;;7.60;74.36;98499.94;4206577;34;32685;-95
2020/12/10 04:03:18;;;;;;;41.67;31.58;;;;;;;7.72;74.33;98505.59;4206340;34;35404;-96
2020/12/10 04:05:51;;;;;;;27.60;20.73;;;;;;;7.16;76.33;98501.97;4199881;34;33301;-93
2020/12/10 04:08:38;;;;;;;19.15;13.93;;;;;;;7.70;74.54;98500.44;4205976;34;33713;-93
2020/12/10 04:11:10;;;;;;;17.75;11.10;;;;;;;7.70;74.36;98502.28;4191649;34;35224;-93
2020/12/10 04:13:44;;;;;;;16.00;10.25;;;;;;;7.77;74.18;98495.09;4170787;34;36039;-93
2020/12/10 04:16:16;;;;;;;14.38;9.43;;;;;;;8.00;73.18;98488.56;4181194;34;33637;-96
2020/12/10 04:19:02;;;;;;;16.27;10.02;;;;;;;7.95;73.33;98491.87;4190005;34;35743;-93
2020/12/10 04:21:34;;;;;;;16.73;10.98;;;;;;;7.94;73.52;98493.69;4192338;34;33883;-93
2020/12/10 04:24:10;;;;;;;14.68;9.68;;;;;;;7.98;73.24;98479.84;4161126;34;34263;-94
2020/12/10 04:26:43;;;;;;;15.38;9.70;;;;;;;7.72;74.16;98489.47;4187443;34;34190;-94
2020/12/10 04:29:15;;;;;;;16.15;9.73;;;;;;;7.56;74.49;98485.25;4178210;34;33962;-95
2020/12/10 04:31:48;;;;;;;12.57;10.15;;;;;;;7.78;73.98;98484.13;4177961;34;34151;-96
2020/12/10 04:34:33;;;;;;;13.62;9.32;;;;;;;8.17;72.57;98472.88;4176031;34;32817;-91
2020/12/10 04:37:05;;;;;;;14.40;10.02;;;;;;;7.98;73.25;98487.91;4166110;34;33913;-92
2020/12/10 04:39:38;;;;;;;14.73;9.68;;;;;;;8.10;72.85;98483.63;4176444;34;33276;-91
2020/12/10 04:42:10;;;;;;;14.75;10.43;;;;;;;7.90;73.37;98480.84;4176578;34;34320;-90
2020/12/10 04:44:45;;;;;;;14.23;10.70;;;;;;;8.16;72.42;98479.28;4190609;34;34792;-93
2020/12/10 04:47:18;;;;;;;16.73;10.23;;;;;;;7.83;73.60;98480.84;4178158;34;34351;-91
2020/12/10 04:49:51;;;;;;;16.48;10.73;;;;;;;8.20;72.36;98481.38;4202155;34;33533;-90
2020/12/10 04:52:24;;;;;;;20.15;10.88;;;;;;;8.18;72.34;98483.44;4177887;34;35254;-91
2020/12/10 04:54:57;;;;;;;15.55;10.43;;;;;;;8.08;72.48;98483.00;4176561;34;34728;-93
2020/12/10 04:57:29;;;;;;;15.27;9.18;;;;;;;8.15;72.37;98483.84;4180042;34;35278;-92
2020/12/10 05:00:04;;;;;;;17.27;11.35;;;;;;;7.79;73.23;98482.25;4180014;34;33492;-92
2020/12/10 05:02:36;;;;;;;20.12;16.37;;;;;;;7.99;72.97;98484.22;4189192;34;35303;-93
2020/12/10 05:05:30;;;;;;;26.87;19.87;;;;;;;7.80;73.50;98483.94;4187748;34;36594;-91
2020/12/10 05:08:03;;;;;;;23.08;17.85;;;;;;;7.83;73.51;98482.69;4201597;34;34602;-95
2020/12/10 05:10:48;;;;;;;16.60;10.82;;;;;;;7.58;74.26;98484.03;4198635;34;33893;-95
2020/12/10 05:13:20;;;;;;;10.80;8.07;;;;;;;7.44;74.31;98487.69;4179607;34;34642;-95
2020/12/10 05:16:21;;;;;;;12.82;9.20;;;;;;;7.50;74.32;98489.56;4201091;34;32919;-91
2020/12/10 05:18:54;;;;;;;10.77;8.18;;;;;;;7.53;74.18;98489.19;4193443;34;34799;-96
2020/12/10 05:21:41;;;;;;;14.68;9.23;;;;;;;7.59;74.23;98485.69;4192424;34;33682;-95
2020/12/10 05:24:20;;;;;;;14.45;10.57;;;;;;;6.95;76.19;98492.09;4212746;34;34469;-92
2020/12/10 05:27:18;;;;;;;16.45;10.18;;;;;;;7.34;75.02;98481.81;4203386;34;34766;-91
2020/12/10 05:29:52;;;;;;;22.48;11.10;;;;;;;7.51;74.45;98493.91;4203730;34;34515;-95
2020/12/10 05:32:41;;;;;;;15.75;10.82;;;;;;;7.48;74.49;98488.91;4199575;34;33893;-91
2020/12/10 05:35:13;;;;;;;13.45;9.13;;;;;;;7.70;73.91;98478.91;4201609;34;33515;-91
2020/12/10 05:37:49;;;;;;;15.25;9.57;;;;;;;7.60;74.07;98492.75;4201589;34;33761;-92
2020/12/10 05:40:21;;;;;;;14.45;9.77;;;;;;;7.40;74.79;98486.41;4199878;34;35035;-92
2020/12/10 05:42:54;;;;;;;14.65;8.82;;;;;;;7.48;74.55;98491.59;4200125;34;33924;-92
2020/12/10 05:45:26;;;;;;;16.20;9.85;;;;;;;7.75;73.71;98486.38;4201974;34;34425;-92
2020/12/10 05:48:01;;;;;;;14.80;9.25;;;;;;;7.40;74.89;98489.09;4201360;34;34793;-95
2020/12/10 05:50:34;;;;;;;12.52;9.05;;;;;;;7.40;74.87;98486.41;4202145;34;33869;-94
2020/12/10 05:53:20;;;;;;;13.02;9.75;;;;;;;7.36;74.69;98485.13;4190728;34;32395;-96
2020/12/10 05:55:54;;;;;;;11.18;9.05;;;;;;;7.42;74.72;98487.03;4193993;34;34254;-96
2020/12/10 05:59:08;;;;;;;11.77;8.43;;;;;;;7.59;73.91;98485.69;4197151;34;35840;-96
2020/12/10 06:01:41;;;;;;;12.65;8.80;;;;;;;6.86;75.27;98486.03;4176984;34;34660;-93
2020/12/10 06:04:14;;;;;;;11.00;8.60;;;;;;;6.48;76.89;98491.69;4191382;34;33117;-94
2020/12/10 06:06:50;;;;;;;11.93;9.18;;;;;;;7.02;75.46;98484.06;4177111;34;32489;-95
2020/12/10 06:09:41;;;;;;;15.27;8.95;;;;;;;7.21;74.63;98478.00;4198245;34;34604;-92
2020/12/10 06:12:14;;;;;;;9.05;6.32;;;;;;;7.30;73.87;98485.94;4192224;34;35270;-92
2020/12/10 06:14:54;;;;;;;10.93;6.68;;;;;;;6.86;74.65;98486.03;4204746;34;33282;-95
2020/12/10 06:17:28;;;;;;;9.13;5.70;;;;;;;6.77;74.51;98497.94;4193736;34;34613;-96
2020/12/10 06:20:32;;;;;;;8.60;5.95;;;;;;;6.26;76.15;98492.69;4201864;34;32796;-91
2020/12/10 06:23:23;;;;;;;8.32;5.85;;;;;;;5.59;79.30;98510.62;4212735;34;33920;-93
2020/12/10 06:25:57;;;;;;;8.88;4.55;;;;;;;6.57;75.30;98503.09;4205362;34;32977;-92
2020/12/10 06:28:29;;;;;;;9.13;4.53;;;;;;;5.39;78.27;98500.44;4213929;33;34494;-94
2020/12/10 06:31:10;;;;;;;9.68;4.85;;;;;;;5.87;76.66;98507.25;4182259;34;32695;-96
2020/12/10 06:33:46;;;;;;;13.25;4.75;;;;;;;5.71;77.46;98513.66;4192577;34;33971;-95
2020/12/10 06:36:31;;;;;;;6.95;4.45;;;;;;;6.21;75.69;98516.56;4212858;34;33149;-91
2020/12/10 06:39:03;;;;;;;10.40;4.65;;;;;;;6.36;74.30;98526.25;4215307;33;34239;-96
2020/12/10 06:42:01;;;;;;;;;;;;;;;5.75;76.51;98526.50;4201425;34;34389;-94
2020/12/10 06:44:52;;;;;;;7.10;4.93;;;;;;;5.61;77.21;98519.28;4216434;33;34301;-96
2020/12/10 06:47:50;;;;;;;10.43;4.90;;;;;;;6.10;75.88;98528.63;4212599;34;34138;-93
2020/12/10 06:50:24;;;;;;;8.07;4.90;;;;;;;5.87;76.17;98517.97;4216378;34;33619;-91
2020/12/10 06:53:09;;;;;;;7.45;4.55;;;;;;;5.93;75.66;98523.44;4219470;34;34467;-93
2020/12/10 06:55:57;;;;;;;5.90;3.90;;;;;;;5.92;75.42;98526.31;4217408;34;33840;-93
2020/12/10 06:58:46;;;;;;;5.03;3.92;;;;;;;6.10;75.01;98524.06;4189496;34;32733;-95
2020/12/10 07:01:32;;;;;;;8.10;3.58;;;;;;;5.70;76.57;98526.22;4190898;34;34387;-96
2020/12/10 07:07:12;;;;;;;6.72;3.78;;;;;;;6.27;74.77;98521.16;4193482;34;33417;-94
2020/12/10 07:09:49;;;;;;;7.90;3.17;;;;;;;6.61;73.32;98527.72;4178193;34;33856;-96
2020/12/10 07:12:30;;;;;;;4.55;3.25;;;;;;;6.22;73.97;98521.75;4188679;34;34118;-93
2020/12/10 07:15:26;;;;;;;3.47;2.92;;;;;;;6.49;73.42;98530.09;4178269;34;34424;-93
2020/12/10 07:18:00;;;;;;;4.50;2.95;;;;;;;6.42;73.55;98530.03;4178098;34;34268;-92
2020/12/10 07:20:33;;;;;;;6.03;3.30;;;;;;;6.29;73.12;98529.87;4167040;34;33957;-93
2020/12/10 07:23:06;;;;;;;8.38;4.05;;;;;;;6.67;72.46;98530.47;4167570;34;34442;-95
2020/12/10 07:25:54;;;;;;;5.25;3.22;;;;;;;6.67;72.60;98535.00;4186033;34;34242;-95
2020/12/10 07:28:29;;;;;;;4.20;3.80;;;;;;;5.95;74.89;98536.66;4201032;34;35011;-96
2020/12/10 07:31:17;;;;;;;7.82;5.57;;;;;;;6.54;72.59;98541.91;4192839;34;32726;-91
2020/12/10 07:33:54;;;;;;;7.18;5.78;;;;;;;6.30;73.88;98544.94;4211034;34;34949;-90
2020/12/10 07:36:49;;;;;;;7.90;5.47;;;;;;;5.84;75.34;98537.97;4179815;34;33306;-93
2020/12/10 07:39:28;;;;;;;7.12;5.97;;;;;;;5.59;76.26;98553.50;4188729;34;35501;-94
2020/12/10 07:42:09;;;;;;;8.68;6.53;;;;;;;5.82;75.16;98538.16;4129764;34;34424;-94
2020/12/10 07:44:42;;;;;;;10.27;7.03;;;;;;;5.28;77.57;98546.44;4158958;34;35092;-94
2020/12/10 07:47:14;;;;;;;11.02;8.60;;;;;;;5.02;77.96;98555.72;4182805;34;34474;-95
2020/12/10 07:49:46;;;;;;;7.82;5.72;;;;;;;4.95;79.09;98549.41;4164755;34;35122;-96
2020/12/10 07:52:32;;;;;;;9.57;6.70;;;;;;;5.01;77.92;98542.50;4214759;33;33763;-96
2020/12/10 07:55:15;;;;;;;8.27;6.05;;;;;;;4.32;79.49;98543.34;4220716;33;33694;-95
2020/12/10 07:58:11;;;;;;;7.70;6.10;;;;;;;5.11;77.29;98541.22;4215703;33;34730;-94
2020/12/10 08:00:45;;;;;;;7.03;6.22;;;;;;;5.60;75.04;98547.13;4184975;34;33218;-93
2020/12/10 08:03:42;;;;;;;8.32;6.47;;;;;;;5.41;75.52;98551.19;4226921;33;33711;-95
2020/12/10 08:06:16;;;;;;;12.18;7.30;;;;;;;5.16;76.96;98546.03;4226373;33;34651;-96
2020/12/10 08:08:59;;;;;;;9.82;7.93;;;;;;;4.93;77.72;98554.94;4228398;33;33871;-96
2020/12/10 08:11:32;;;;;;;11.32;8.27;;;;;;;5.15;76.82;98557.78;4225119;33;33904;-96
2020/12/10 08:14:25;;;;;;;11.32;8.27;;;;;;;5.06;77.48;98562.38;4204782;34;31887;-96
2020/12/10 08:17:00;;;;;;;14.87;10.88;;;;;;;5.10;77.46;98566.38;4193718;34;35483;-96
2020/12/10 08:20:06;;;;;;;13.65;11.80;;;;;;;5.11;77.15;98570.69;4191466;34;34024;-96
2020/12/10 08:23:01;;;;;;;10.75;6.72;;;;;;;5.07;76.66;98576.59;4194762;33;34109;-96
2020/12/10 08:26:17;;;;;;;8.57;6.43;;;;;;;4.37;79.24;98583.78;4193212;34;33324;-94
2020/12/10 08:29:05;;;;;;;10.27;6.70;;;;;;;4.57;78.30;98587.66;4191617;33;32615;-96
2020/12/10 08:31:39;;;;;;;11.35;6.90;;;;;;;4.87;77.23;98592.34;4191661;34;34468;-91
2020/12/10 08:34:17;;;;;;;11.68;8.63;;;;;;;5.12;76.14;98585.75;4189396;34;34174;-91
2020/12/10 08:36:50;;;;;;;12.13;8.35;;;;;;;5.01;76.31;98596.91;4192096;34;33743;-91
2020/12/10 08:39:31;;;;;;;13.13;8.85;;;;;;;4.81;77.58;98598.41;4176330;34;33819;-92
2020/12/10 08:42:07;;;;;;;12.00;6.97;;;;;;;4.54;78.43;98600.59;4195772;34;35807;-92
2020/12/10 08:44:51;;;;;;;9.20;6.18;;;;;;;4.85;77.50;98599.69;4185458;34;34396;-92
2020/12/10 08:47:24;;;;;;;6.90;5.78;;;;;;;5.05;76.14;98592.03;4179454;34;34025;-92
2020/12/10 08:50:22;;;;;;;13.55;7.32;;;;;;;4.66;76.95;98607.19;4197781;34;35233;-91
2020/12/10 08:52:59;;;;;;;9.13;6.40;;;;;;;4.84;76.87;98616.78;4182078;34;34414;-93
2020/12/10 08:55:44;;;;;;;8.90;7.35;;;;;;;5.37;75.04;98609.66;4191489;34;33890;-93
2020/12/10 08:58:25;;;;;;;13.38;8.27;;;;;;;4.87;75.82;98614.56;4213782;34;32895;-90
2020/12/10 09:01:00;;;;;;;10.18;7.85;;;;;;;5.11;75.19;98616.22;4201201;34;32775;-91
2020/12/10 09:03:34;;;;;;;10.65;8.80;;;;;;;5.28;75.26;98614.28;4191106;34;34777;-95
2020/12/10 09:06:06;;;;;;;9.68;7.95;;;;;;;5.58;74.18;98616.16;4171731;34;33661;-91
2020/12/10 09:08:38;;;;;;;11.07;8.57;;;;;;;5.17;75.31;98609.34;4204801;34;33212;-92
2020/12/10 09:11:11;;;;;;;11.07;9.05;;;;;;;5.14;75.21;98620.41;4185364;34;33659;-94
2020/12/10 09:14:02;;;;;;;12.95;7.35;;;;;;;5.16;75.63;98613.00;4195048;33;35308;-94
2020/12/10 09:16:34;;;;;;;9.27;6.72;;;;;;;5.36;73.56;98620.53;4201179;34;34341;-91
2020/12/10 09:19:06;;;;;;;11.40;7.90;;;;;;;5.50;73.92;98621.63;4203173;34;33696;-92
2020/12/10 09:21:39;;;;;;;11.93;8.15;;;;;;;5.01;74.76;98626.34;4190423;34;34169;-85
2020/12/10 09:24:11;;;;;;;14.55;8.40;;;;;;;5.21;74.05;98625.88;4192420;34;33520;-86
2020/12/10 09:26:43;;;;;;;17.58;9.23;;;;;;;4.92;76.01;98624.75;4204548;34;35442;-92
2020/12/10 09:29:17;;;;;;;13.52;8.45;;;;;;;4.84;75.88;98624.81;4192761;34;34278;-90
2020/12/10 09:31:53;;;;;;;18.92;9.82;;;;;;;4.68;75.60;98623.91;4215842;34;33598;-96
2020/12/10 09:34:29;;;;;;;17.12;10.00;;;;;;;4.28;77.62;98620.47;4192544;34;34684;-92
2020/12/10 09:37:01;;;;;;;19.17;11.57;;;;;;;4.38;77.46;98618.38;4179332;34;34645;-93
2020/12/10 09:39:54;;;;;;;20.77;11.57;;;;;;;4.57;76.33;98621.63;4172823;34;34581;-92
2020/12/10 09:42:27;;;;;;;21.25;12.80;;;;;;;4.92;75.40;98619.41;4193786;34;33874;-86
2020/12/10 09:44:59;;;;;;;22.45;13.80;;;;;;;5.32;74.25;98616.59;4201792;34;34832;-94
2020/12/10 09:47:33;;;;;;;21.98;13.80;;;;;;;5.16;73.91;98612.19;4203783;34;35553;-93
2020/12/10 09:50:22;;;;;;;21.35;14.50;;;;;;;4.90;75.35;98614.22;4186170;34;34080;-93
2020/12/10 09:53:20;;;;;;;20.27;13.15;;;;;;;4.72;75.77;98616.38;4186724;34;35215;-87
2020/12/10 09:58:51;;;;;;;20.37;14.35;;;;;;;5.04;75.08;98615.28;4206433;34;33992;-94
2020/12/10 10:01:46;;;;;;;20.48;13.13;;;;;;;5.23;74.28;98613.13;4207894;34;36281;-96
2020/12/10 10:04:32;;;;;;;17.48;12.85;;;;;;;5.10;74.78;98609.22;4215203;34;36398;-93
2020/12/10 10:07:06;;;;;;;19.92;12.55;;;;;;;4.82;75.03;98616.13;4192750;34;34076;-88
2020/12/10 10:09:39;;;;;;;19.98;13.70;;;;;;;4.69;75.74;98614.87;4194576;34;33697;-94
2020/12/10 10:12:12;;;;;;;20.92;12.50;;;;;;;4.97;75.52;98619.72;4206453;33;34139;-95
2020/12/10 10:15:01;;;;;;;18.98;12.27;;;;;;;4.92;75.44;98616.72;4217875;34;36785;-93
2020/12/10 10:17:33;;;;;;;24.40;13.15;;;;;;;5.24;74.22;98609.44;4219859;34;34709;-94
2020/12/10 10:20:27;;;;;;;17.42;11.60;;;;;;;5.53;72.63;98607.84;4211104;34;33869;-96
2020/12/10 10:22:59;;;;;;;23.92;14.27;;;;;;;4.74;75.12;98609.81;4205041;34;32843;-88
2020/12/10 10:25:31;;;;;;;24.10;15.15;;;;;;;5.18;74.10;98608.31;4204940;34;34360;-95
2020/12/10 10:28:04;;;;;;;25.30;15.35;;;;;;;5.08;73.70;98605.87;4181981;34;34732;-96
2020/12/10 10:30:37;;;;;;;21.90;13.95;;;;;;;5.18;73.82;98607.47;4190007;34;34570;-89
2020/12/10 10:33:09;;;;;;;21.92;14.07;;;;;;;5.02;74.46;98603.09;4193464;34;33276;-93
2020/12/10 10:36:04;;;;;;;21.60;14.30;;;;;;;5.16;73.91;98601.47;4203919;28;34346;-88
2020/12/10 10:38:36;;;;;;;23.05;15.57;;;;;;;5.57;72.40;98604.63;4203960;34;33435;-89
2020/12/10 10:41:22;;;;;;;29.70;18.20;;;;;;;5.24;73.47;98604.06;4207680;34;34506;-93
2020/12/10 10:43:54;;;;;;;24.08;15.27;;;;;;;5.06;74.23;98607.06;4219970;33;32509;-95
2020/12/10 10:47:00;;;;;;;26.00;16.50;;;;;;;5.20;73.23;98614.31;4219508;33;35362;-96
2020/12/10 10:49:36;;;;;;;24.67;15.35;;;;;;;5.22;73.95;98611.47;4222371;33;34197;-93
2020/12/10 10:52:22;;;;;;;22.10;14.07;;;;;;;5.17;74.16;98605.84;4210263;33;34386;-93
2020/12/10 10:54:54;;;;;;;27.70;15.73;;;;;;;5.27;72.81;98611.78;4207599;34;33904;-96
2020/12/10 10:57:44;;;;;;;23.38;14.52;;;;;;;5.55;72.39;98611.16;4223474;33;35113;-95
2020/12/10 11:00:19;;;;;;;24.85;15.30;;;;;;;5.09;73.93;98615.59;4256165;33;33554;-96
2020/12/10 11:02:55;;;;;;;25.60;15.32;;;;;;;4.94;74.15;98612.03;4246862;33;35768;-93
2020/12/10 11:05:27;;;;;;;18.05;12.98;;;;;;;5.20;74.35;98610.81;4227066;33;34116;-95
2020/12/10 11:08:11;;;;;;;25.65;15.85;;;;;;;5.14;74.08;98615.06;4187258;34;33997;-94
2020/12/10 11:10:49;;;;;;;30.90;16.35;;;;;;;4.85;75.63;98610.41;4172618;34;34220;-94
2020/12/10 11:13:22;;;;;;;20.62;14.35;;;;;;;4.92;75.18;98617.53;4176558;34;33763;-88
2020/12/10 11:15:54;;;;;;;23.38;13.20;;;;;;;4.84;75.02;98617.62;4189722;34;33547;-88
2020/12/10 11:18:26;;;;;;;17.67;12.25;;;;;;;4.53;76.19;98610.44;4186074;34;34223;-88
2020/12/10 11:20:59;;;;;;;18.12;11.60;;;;;;;4.71;75.60;98614.69;4185463;34;34774;-93
2020/12/10 11:23:56;;;;;;;18.10;11.45;;;;;;;3.88;77.06;98624.94;4181772;34;34113;-90
2020/12/10 11:26:28;;;;;;;18.17;13.30;;;;;;;4.04;78.37;98619.53;4202575;34;34581;-92
2020/12/10 11:29:02;;;;;;;21.20;14.60;;;;;;;3.97;78.24;98623.91;4192162;34;33893;-88
2020/12/10 11:31:34;;;;;;;19.92;13.00;;;;;;;4.50;77.13;98620.66;4204560;34;33339;-94
2020/12/10 11:34:31;;;;;;;18.40;11.60;;;;;;;4.78;76.35;98634.38;4154817;34;34218;-88
2020/12/10 11:37:03;;;;;;;18.55;12.85;;;;;;;5.02;74.83;98638.75;4173365;34;33284;-92
2020/12/10 11:39:35;;;;;;;18.02;11.70;;;;;;;4.15;77.69;98639.72;4159393;34;33763;-89
2020/12/10 11:42:07;;;;;;;17.23;11.35;;;;;;;3.81;79.12;98635.47;4162466;34;34712;-88
2020/12/10 11:44:41;;;;;;;15.27;9.95;;;;;;;4.41;76.97;98636.75;4150623;34;33135;-89
2020/12/10 11:47:14;;;;;;;12.85;9.13;;;;;;;4.28;77.32;98635.66;4162532;34;33374;-89
2020/12/10 11:49:46;;;;;;;15.25;10.45;;;;;;;4.00;78.10;98638.78;4161492;34;33783;-89
2020/12/10 11:52:19;;;;;;;15.90;10.15;;;;;;;4.18;77.95;98638.56;4175134;34;33476;-90
2020/12/10 11:55:00;;;;;;;15.07;10.15;;;;;;;4.38;77.12;98642.44;4191699;34;33876;-96
2020/12/10 11:57:34;;;;;;;17.15;11.88;;;;;;;4.34;76.77;98646.50;4193522;33;34098;-89
2020/12/10 12:00:07;;;;;;;17.42;11.73;;;;;;;4.36;77.07;98643.66;4197862;34;33779;-90
2020/12/10 12:02:41;;;;;;;17.67;11.80;;;;;;;4.55;76.65;98643.22;4201219;34;33484;-90
2020/12/10 12:05:13;;;;;;;22.48;12.60;;;;;;;4.63;76.05;98653.06;4201159;34;34068;-89
2020/12/10 12:07:48;;;;;;;26.00;14.45;;;;;;;4.75;75.97;98653.47;4199954;34;33170;-90
2020/12/10 12:10:21;;;;;;;26.08;15.80;;;;;;;4.29;77.92;98653.38;4201618;34;33538;-89
2020/12/10 12:12:54;;;;;;;30.35;15.32;;;;;;;4.32;77.89;98653.03;4201806;34;34781;-89
2020/12/10 12:15:26;;;;;;;23.00;14.52;;;;;;;4.30;78.07;98650.53;4212994;34;34948;-90
2020/12/10 12:17:58;;;;;;;26.45;15.00;;;;;;;4.07;78.53;98645.09;4212351;34;34139;-93
2020/12/10 12:20:30;;;;;;;22.48;14.18;;;;;;;4.19;77.97;98653.56;4190487;34;34018;-89
2020/12/10 12:23:05;;;;;;;27.25;15.05;;;;;;;3.95;78.89;98639.31;4200770;34;34022;-90
2020/12/10 12:25:37;;;;;;;26.27;15.80;;;;;;;3.87;79.62;98648.16;4212683;34;34244;-89
2020/12/10 12:28:10;;;;;;;29.60;16.42;;;;;;;4.41;77.52;98646.63;4202885;34;33787;-90
2020/12/10 12:30:42;;;;;;;20.00;12.98;;;;;;;4.44;76.64;98645.47;4210977;34;33548;-89
2020/12/10 12:33:15;;;;;;;25.25;14.87;;;;;;;4.18;77.58;98649.25;4192025;34;34347;-90